Time;durP1;ratioP1;P1;durP2;ratioP2;P2;SDS_P1;SDS_P2;PMS_P1;PMS_P2;Temp;Humidity;BMP_temperature;BMP_pressure;BME280_temperature;BME280_humidity;BME280_pressure;Samples;Min_cycle;Max_cycle;Signal;HPM_P1;HPM_P2
2022/10/31 00:02:06;;;;;;;9.87;8.67;;;;;;;;;;5070676;28;20467;-78
2022/10/31 00:04:33;;;;;;;10.87;8.97;;;;;;;;;;5069614;28;20437;-76
2022/10/31 00:07:00;;;;;;;14.33;9.37;;;;;;;;;;5070450;28;20452;-77
2022/10/31 00:09:27;;;;;;;10.80;8.87;;;;;;;;;;5069832;28;20448;-76
2022/10/31 00:11:54;;;;;;;14.10;10.10;;;;;;;;;;5070215;28;20469;-77
2022/10/31 00:14:21;;;;;;;11.30;8.33;;;;;;;;;;5069721;28;20448;-77
2022/10/31 00:16:50;;;;;;;14.07;9.87;;;;;;;;;;5070275;28;20487;-78
2022/10/31 00:19:17;;;;;;;10.83;9.40;;;;;;;;;;5070226;28;20452;-77
2022/10/31 00:21:44;;;;;;;9.93;8.93;;;;;;;;;;5074369;28;20527;-76
2022/10/31 00:24:12;;;;;;;13.27;9.53;;;;;;;;;;5080431;28;20456;-76
2022/10/31 00:26:39;;;;;;;10.43;9.37;;;;;;;;;;5081149;28;20436;-76
2022/10/31 00:29:06;;;;;;;11.37;9.03;;;;;;;;;;5081930;28;20456;-76
2022/10/31 00:31:33;;;;;;;12.67;9.10;;;;;;;;;;5072480;28;20476;-78
2022/10/31 00:34:02;;;;;;;9.27;8.27;;;;;;;;;;5074868;28;20833;-77
2022/10/31 00:36:30;;;;;;;10.47;9.40;;;;;;;;;;5075509;28;20484;-78
2022/10/31 00:38:57;;;;;;;10.90;9.33;;;;;;;;;;5074944;28;20453;-76
2022/10/31 00:41:24;;;;;;;11.03;10.03;;;;;;;;;;5074562;28;20444;-76
2022/10/31 00:43:51;;;;;;;11.33;8.63;;;;;;;;;;5074260;28;20445;-77
2022/10/31 00:46:18;;;;;;;12.77;9.00;;;;;;;;;;5074113;28;20820;-76
2022/10/31 00:48:45;;;;;;;12.33;8.73;;;;;;;;;;5073787;28;20446;-77
2022/10/31 00:51:13;;;;;;;14.63;9.83;;;;;;;;;;5073770;28;21042;-77
2022/10/31 00:53:40;;;;;;;11.83;9.80;;;;;;;;;;5073373;28;20443;-77
2022/10/31 00:56:08;;;;;;;10.17;9.07;;;;;;;;;;5077125;28;20483;-77
2022/10/31 00:58:35;;;;;;;10.37;8.60;;;;;;;;;;5084869;28;20444;-76
2022/10/31 01:01:02;;;;;;;12.40;9.80;;;;;;;;;;5084522;28;20436;-76
2022/10/31 01:03:30;;;;;;;11.90;10.20;;;;;;;;;;5084483;28;20501;-76
2022/10/31 01:05:58;;;;;;;9.73;8.80;;;;;;;;;;5084410;28;20444;-76
2022/10/31 01:08:27;;;;;;;10.00;9.00;;;;;;;;;;5086001;28;20444;-76
2022/10/31 01:11:01;;;;;;;11.83;8.90;;;;;;;;;;5083892;28;20670;-76
2022/10/31 01:13:28;;;;;;;11.23;9.20;;;;;;;;;;5058624;28;20490;-77
2022/10/31 01:15:56;;;;;;;14.27;9.70;;;;;;;;;;5053365;28;20883;-76
2022/10/31 01:18:23;;;;;;;11.37;9.47;;;;;;;;;;5053550;28;20500;-77
2022/10/31 01:20:58;;;;;;;13.47;9.57;;;;;;;;;;5053602;28;20441;-77
2022/10/31 01:23:26;;;;;;;13.67;9.73;;;;;;;;;;5052910;28;20464;-77
2022/10/31 01:26:00;;;;;;;11.43;9.30;;;;;;;;;;5053479;28;20441;-77
2022/10/31 01:28:27;;;;;;;16.47;10.73;;;;;;;;;;5053149;28;20449;-77
2022/10/31 01:30:54;;;;;;;10.13;9.13;;;;;;;;;;5053436;28;20457;-78
2022/10/31 01:33:21;;;;;;;14.80;9.40;;;;;;;;;;5052665;28;20476;-77
2022/10/31 01:35:48;;;;;;;11.07;9.70;;;;;;;;;;5053394;28;20824;-77
2022/10/31 01:38:15;;;;;;;12.30;10.23;;;;;;;;;;5052922;28;20453;-76
2022/10/31 01:40:43;;;;;;;11.67;10.20;;;;;;;;;;5052813;28;20445;-76
2022/10/31 01:43:13;;;;;;;14.03;10.87;;;;;;;;;;5051530;28;20526;-77
2022/10/31 01:45:40;;;;;;;13.47;10.67;;;;;;;;;;5052557;28;20524;-76
2022/10/31 01:48:11;;;;;;;13.27;9.00;;;;;;;;;;5052758;28;20453;-76
2022/10/31 01:50:39;;;;;;;10.40;9.33;;;;;;;;;;5052603;28;20450;-77
2022/10/31 01:53:06;;;;;;;11.00;9.87;;;;;;;;;;5051688;28;20496;-77
2022/10/31 01:55:36;;;;;;;11.90;10.33;;;;;;;;;;5051214;28;20485;-77
2022/10/31 01:58:07;;;;;;;15.33;11.17;;;;;;;;;;5052782;28;20446;-77
2022/10/31 02:00:35;;;;;;;15.83;10.37;;;;;;;;;;5052296;28;20438;-77
2022/10/31 02:03:02;;;;;;;16.83;9.60;;;;;;;;;;5051926;28;20511;-77
2022/10/31 02:05:30;;;;;;;10.37;9.20;;;;;;;;;;5052269;28;20445;-77
2022/10/31 02:07:59;;;;;;;13.80;10.20;;;;;;;;;;5052150;28;20434;-77
2022/10/31 02:10:26;;;;;;;12.80;10.47;;;;;;;;;;5052270;28;20894;-77
2022/10/31 02:12:54;;;;;;;13.23;9.87;;;;;;;;;;5051332;28;20472;-77
2022/10/31 02:15:23;;;;;;;13.37;10.00;;;;;;;;;;5051811;28;20449;-77
2022/10/31 02:17:50;;;;;;;11.37;9.87;;;;;;;;;;5052209;28;21048;-77
2022/10/31 02:20:18;;;;;;;10.50;9.43;;;;;;;;;;5051825;28;20477;-77
2022/10/31 02:23:12;;;;;;;10.40;9.07;;;;;;;;;;5050774;28;20466;-77
2022/10/31 02:25:58;;;;;;;11.10;10.00;;;;;;;;;;5052084;28;20430;-76
2022/10/31 02:28:36;;;;;;;11.67;10.57;;;;;;;;;;5051706;28;20476;-77
2022/10/31 02:31:14;;;;;;;11.70;9.43;;;;;;;;;;5051673;28;20450;-77
2022/10/31 02:33:43;;;;;;;12.47;10.40;;;;;;;;;;5050889;28;20457;-76
2022/10/31 02:36:13;;;;;;;12.73;9.77;;;;;;;;;;5051648;28;20492;-76
2022/10/31 02:38:49;;;;;;;11.63;10.13;;;;;;;;;;5051737;28;20445;-76
2022/10/31 02:41:19;;;;;;;11.40;10.07;;;;;;;;;;5051686;28;20452;-76
2022/10/31 02:43:51;;;;;;;12.10;10.20;;;;;;;;;;5050691;28;20457;-77
2022/10/31 02:46:24;;;;;;;15.10;10.30;;;;;;;;;;5051384;28;20767;-76
2022/10/31 02:48:54;;;;;;;13.40;10.13;;;;;;;;;;5051395;28;20450;-76
2022/10/31 02:51:22;;;;;;;12.20;10.90;;;;;;;;;;5051351;28;20452;-78
2022/10/31 02:53:49;;;;;;;12.30;10.20;;;;;;;;;;5050616;28;20486;-77
2022/10/31 02:56:17;;;;;;;11.60;9.60;;;;;;;;;;5050364;28;20474;-76
2022/10/31 02:58:46;;;;;;;10.80;9.70;;;;;;;;;;5050986;28;20547;-77
2022/10/31 03:01:28;;;;;;;12.40;9.57;;;;;;;;;;5051106;28;20503;-77
2022/10/31 03:04:01;;;;;;;12.60;10.20;;;;;;;;;;5050601;28;20464;-77
2022/10/31 03:06:31;;;;;;;13.20;10.60;;;;;;;;;;5050999;28;20438;-76
2022/10/31 03:09:04;;;;;;;11.03;10.03;;;;;;;;;;5051310;28;20434;-76
2022/10/31 03:11:34;;;;;;;11.10;9.50;;;;;;;;;;5051066;28;20808;-77
2022/10/31 03:14:04;;;;;;;11.50;8.97;;;;;;;;;;5050518;28;20480;-76
2022/10/31 03:16:36;;;;;;;10.63;9.50;;;;;;;;;;5050963;28;20481;-76
2022/10/31 03:19:04;;;;;;;10.70;9.60;;;;;;;;;;5051457;28;20479;-76
2022/10/31 03:21:32;;;;;;;15.20;10.63;;;;;;;;;;5068021;28;20468;-77
2022/10/31 03:23:59;;;;;;;11.60;9.50;;;;;;;;;;5075796;28;20449;-77
2022/10/31 03:26:27;;;;;;;9.73;8.83;;;;;;;;;;5070750;28;20445;-76
2022/10/31 03:28:56;;;;;;;10.40;9.17;;;;;;;;;;5073929;28;20444;-76
2022/10/31 03:31:25;;;;;;;12.63;9.30;;;;;;;;;;5076257;28;20441;-77
2022/10/31 03:33:53;;;;;;;11.13;8.80;;;;;;;;;;5075165;28;20448;-75
2022/10/31 03:36:21;;;;;;;10.43;9.33;;;;;;;;;;5071972;28;20484;-76
2022/10/31 03:38:49;;;;;;;10.63;8.93;;;;;;;;;;5070814;28;20920;-77
2022/10/31 03:41:20;;;;;;;10.43;9.40;;;;;;;;;;5070620;28;20452;-76
2022/10/31 03:43:50;;;;;;;11.77;10.33;;;;;;;;;;5070132;28;21006;-78
2022/10/31 03:46:17;;;;;;;11.37;9.10;;;;;;;;;;5070530;28;20437;-77
2022/10/31 03:48:44;;;;;;;10.37;9.00;;;;;;;;;;5069937;28;20932;-77
2022/10/31 03:51:16;;;;;;;13.00;8.93;;;;;;;;;;5070375;28;20449;-76
2022/10/31 03:53:46;;;;;;;10.80;8.43;;;;;;;;;;5069635;28;20448;-76
2022/10/31 03:56:18;;;;;;;10.20;9.20;;;;;;;;;;5070731;28;20980;-77
2022/10/31 03:58:48;;;;;;;9.57;8.70;;;;;;;;;;5070111;28;20448;-77
2022/10/31 04:01:18;;;;;;;9.50;8.60;;;;;;;;;;5070652;28;20460;-76
2022/10/31 04:03:46;;;;;;;9.67;8.57;;;;;;;;;;5069670;28;20962;-76
2022/10/31 04:06:17;;;;;;;9.97;8.90;;;;;;;;;;5069887;28;20437;-76
2022/10/31 04:08:47;;;;;;;11.43;9.60;;;;;;;;;;5069652;28;20441;-77
2022/10/31 04:11:15;;;;;;;13.37;9.40;;;;;;;;;;5069953;28;20820;-77
2022/10/31 04:13:43;;;;;;;14.53;9.23;;;;;;;;;;5052612;28;20544;-77
2022/10/31 04:16:11;;;;;;;10.47;8.60;;;;;;;;;;5049865;28;20473;-76
2022/10/31 04:18:39;;;;;;;10.57;9.30;;;;;;;;;;5050307;28;20441;-76
2022/10/31 04:21:07;;;;;;;12.37;9.77;;;;;;;;;;5049837;28;20446;-76
2022/10/31 04:23:35;;;;;;;12.73;9.27;;;;;;;;;;5049450;28;20449;-76
2022/10/31 04:26:03;;;;;;;10.43;9.40;;;;;;;;;;5056722;28;20460;-76
2022/10/31 04:28:30;;;;;;;12.47;9.10;;;;;;;;;;5068484;28;20459;-77
2022/10/31 04:30:57;;;;;;;9.97;9.00;;;;;;;;;;5069837;28;20448;-76
2022/10/31 04:33:24;;;;;;;9.73;8.73;;;;;;;;;;5069127;28;20472;-75
2022/10/31 04:35:51;;;;;;;10.03;8.90;;;;;;;;;;5069921;28;20459;-77
2022/10/31 04:38:18;;;;;;;14.73;9.40;;;;;;;;;;5070097;28;20499;-77
2022/10/31 04:40:47;;;;;;;10.53;9.37;;;;;;;;;;5070427;28;20440;-78
2022/10/31 04:43:14;;;;;;;9.63;8.77;;;;;;;;;;5069571;28;20467;-78
2022/10/31 04:45:41;;;;;;;11.40;9.83;;;;;;;;;;5069951;28;20472;-77
2022/10/31 04:48:08;;;;;;;9.87;8.87;;;;;;;;;;5069680;28;20437;-76
2022/10/31 04:50:35;;;;;;;11.63;9.80;;;;;;;;;;5069938;28;20808;-77
2022/10/31 04:53:02;;;;;;;11.27;10.17;;;;;;;;;;5069115;28;20456;-76
2022/10/31 04:55:29;;;;;;;10.83;9.73;;;;;;;;;;5069401;28;20444;-76
2022/10/31 04:57:58;;;;;;;12.80;9.63;;;;;;;;;;5069484;28;20484;-76
2022/10/31 05:00:25;;;;;;;11.23;9.53;;;;;;;;;;5069604;28;20455;-76
2022/10/31 05:02:53;;;;;;;10.20;9.10;;;;;;;;;;5069043;28;20460;-77
2022/10/31 05:05:21;;;;;;;10.50;9.20;;;;;;;;;;5069092;28;20444;-75
2022/10/31 05:07:49;;;;;;;12.10;9.70;;;;;;;;;;5070106;28;20444;-78
2022/10/31 05:10:18;;;;;;;11.20;8.97;;;;;;;;;;5065536;28;20455;-76
2022/10/31 05:12:48;;;;;;;10.83;9.67;;;;;;;;;;5060203;28;20465;-76
2022/10/31 05:15:17;;;;;;;12.07;9.27;;;;;;;;;;5061371;28;20448;-76
2022/10/31 05:17:45;;;;;;;10.63;9.63;;;;;;;;;;5069588;28;20879;-77
2022/10/31 05:20:12;;;;;;;12.83;9.63;;;;;;;;;;5073738;28;20440;-76
2022/10/31 05:22:43;;;;;;;12.53;10.87;;;;;;;;;;5072649;28;20567;-76
2022/10/31 05:25:10;;;;;;;10.70;9.60;;;;;;;;;;5076724;28;20432;-77
2022/10/31 05:27:39;;;;;;;12.43;10.10;;;;;;;;;;5074148;28;20444;-76
2022/10/31 05:30:07;;;;;;;12.13;10.80;;;;;;;;;;5073287;28;20444;-77
2022/10/31 05:32:39;;;;;;;11.83;10.73;;;;;;;;;;5072217;28;20483;-77
2022/10/31 05:35:08;;;;;;;13.10;11.47;;;;;;;;;;5073168;28;20468;-76
2022/10/31 05:37:35;;;;;;;12.13;10.47;;;;;;;;;;5072956;28;20906;-77
2022/10/31 05:40:02;;;;;;;12.07;10.40;;;;;;;;;;5072983;28;20471;-76
2022/10/31 05:42:29;;;;;;;13.83;10.60;;;;;;;;;;5064320;28;20522;-76
2022/10/31 05:44:56;;;;;;;11.40;10.23;;;;;;;;;;5058684;28;20936;-76
2022/10/31 05:47:23;;;;;;;10.43;9.43;;;;;;;;;;5052803;28;20433;-76
2022/10/31 05:49:51;;;;;;;11.03;9.73;;;;;;;;;;5053338;28;20446;-76
2022/10/31 05:52:18;;;;;;;10.33;9.23;;;;;;;;;;5055715;28;20465;-77
2022/10/31 05:54:46;;;;;;;12.07;9.80;;;;;;;;;;5053122;28;20430;-76
2022/10/31 05:57:13;;;;;;;11.43;10.40;;;;;;;;;;5053186;28;20477;-77
2022/10/31 05:59:40;;;;;;;14.33;9.83;;;;;;;;;;5053580;28;20441;-76
2022/10/31 06:02:07;;;;;;;11.43;10.30;;;;;;;;;;5054497;28;20472;-77
2022/10/31 06:04:34;;;;;;;11.73;10.10;;;;;;;;;;5052282;28;20457;-77
2022/10/31 06:07:02;;;;;;;10.60;9.50;;;;;;;;;;5053043;28;20438;-76
2022/10/31 06:09:29;;;;;;;11.60;10.47;;;;;;;;;;5053408;28;20449;-78
2022/10/31 06:11:56;;;;;;;10.07;9.00;;;;;;;;;;5054557;28;20478;-77
2022/10/31 06:14:23;;;;;;;11.57;9.77;;;;;;;;;;5053923;28;20453;-76
2022/10/31 06:16:50;;;;;;;11.40;10.20;;;;;;;;;;5054183;28;20997;-77
2022/10/31 06:19:17;;;;;;;10.80;9.90;;;;;;;;;;5054784;28;20453;-77
2022/10/31 06:21:44;;;;;;;10.67;9.60;;;;;;;;;;5052064;28;20576;-78
2022/10/31 06:24:14;;;;;;;11.97;9.80;;;;;;;;;;5051689;28;20479;-77
2022/10/31 06:26:41;;;;;;;10.20;9.20;;;;;;;;;;5051726;28;20480;-76
2022/10/31 06:29:08;;;;;;;10.23;9.20;;;;;;;;;;5066360;28;20440;-77
2022/10/31 06:31:35;;;;;;;13.60;10.03;;;;;;;;;;5071652;28;20468;-77
2022/10/31 06:34:02;;;;;;;10.40;9.40;;;;;;;;;;5071156;28;20530;-76
2022/10/31 06:36:29;;;;;;;10.97;9.83;;;;;;;;;;5072243;28;20453;-77
2022/10/31 06:38:56;;;;;;;10.47;9.37;;;;;;;;;;5072225;28;21003;-77
2022/10/31 06:41:25;;;;;;;13.90;10.00;;;;;;;;;;5071608;28;20448;-77
2022/10/31 06:43:52;;;;;;;13.50;10.00;;;;;;;;;;5071386;28;20445;-77
2022/10/31 06:46:19;;;;;;;13.13;9.57;;;;;;;;;;5071881;28;20448;-77
2022/10/31 06:48:46;;;;;;;12.77;9.57;;;;;;;;;;5072104;28;20453;-75
2022/10/31 06:51:13;;;;;;;12.37;9.83;;;;;;;;;;5064678;28;20452;-77
2022/10/31 06:53:40;;;;;;;12.07;10.03;;;;;;;;;;5051321;28;20468;-77
2022/10/31 06:56:07;;;;;;;10.63;9.57;;;;;;;;;;5051203;28;20933;-77
2022/10/31 06:58:36;;;;;;;12.33;9.70;;;;;;;;;;5062183;28;20479;-76
2022/10/31 07:01:03;;;;;;;12.47;10.60;;;;;;;;;;5071911;28;20444;-77
2022/10/31 07:03:30;;;;;;;10.93;9.83;;;;;;;;;;5071179;28;20472;-78
2022/10/31 07:05:57;;;;;;;15.80;10.80;;;;;;;;;;5071871;28;20445;-77
2022/10/31 07:08:25;;;;;;;12.40;9.90;;;;;;;;;;5071204;28;20820;-76
2022/10/31 07:10:53;;;;;;;11.27;9.80;;;;;;;;;;5071552;28;20459;-77
2022/10/31 07:13:24;;;;;;;11.93;10.00;;;;;;;;;;5057255;28;21007;-76
2022/10/31 07:15:53;;;;;;;11.63;10.43;;;;;;;;;;5052013;28;20430;-78
2022/10/31 07:18:21;;;;;;;11.27;10.23;;;;;;;;;;5051465;28;20513;-76
2022/10/31 07:20:48;;;;;;;11.63;10.50;;;;;;;;;;5053177;28;20449;-77
2022/10/31 07:23:16;;;;;;;12.23;11.03;;;;;;;;;;5051997;28;20461;-77
2022/10/31 07:25:43;;;;;;;10.70;9.70;;;;;;;;;;5053396;28;20445;-77
2022/10/31 07:28:10;;;;;;;13.10;10.30;;;;;;;;;;5051033;28;20461;-76
2022/10/31 07:30:38;;;;;;;10.80;9.80;;;;;;;;;;5051172;28;20833;-76
2022/10/31 07:33:06;;;;;;;10.87;9.83;;;;;;;;;;5050586;28;20985;-78
2022/10/31 07:35:34;;;;;;;11.27;10.27;;;;;;;;;;5051164;28;20456;-76
2022/10/31 07:38:08;;;;;;;10.67;9.63;;;;;;;;;;5051108;28;20477;-76
2022/10/31 07:40:35;;;;;;;10.07;9.17;;;;;;;;;;5051323;28;20442;-77
2022/10/31 07:43:02;;;;;;;10.90;9.80;;;;;;;;;;5050352;28;20484;-76
2022/10/31 07:45:29;;;;;;;11.30;10.10;;;;;;;;;;5050528;28;20442;-77
2022/10/31 07:47:56;;;;;;;12.53;9.07;;;;;;;;;;5050763;28;20684;-77
2022/10/31 07:50:26;;;;;;;10.53;9.40;;;;;;;;;;5050949;28;20453;-76
2022/10/31 07:52:59;;;;;;;12.80;8.80;;;;;;;;;;5050172;28;20473;-77
2022/10/31 07:55:26;;;;;;;9.57;8.70;;;;;;;;;;5050818;28;20906;-76
2022/10/31 07:57:57;;;;;;;9.53;8.70;;;;;;;;;;5050989;28;20485;-76
2022/10/31 08:00:24;;;;;;;9.40;8.33;;;;;;;;;;5051279;28;20426;-76
2022/10/31 08:02:57;;;;;;;12.87;9.43;;;;;;;;;;5050599;28;20492;-77
2022/10/31 08:05:26;;;;;;;12.50;8.83;;;;;;;;;;5050981;28;20481;-76
2022/10/31 08:07:53;;;;;;;9.80;9.00;;;;;;;;;;5051528;28;20508;-77
2022/10/31 08:10:20;;;;;;;10.30;9.00;;;;;;;;;;5051328;28;20457;-77
2022/10/31 08:12:47;;;;;;;10.50;8.20;;;;;;;;;;5072438;28;20457;-77
2022/10/31 08:15:14;;;;;;;14.10;8.27;;;;;;;;;;5073694;28;20505;-78
2022/10/31 08:17:41;;;;;;;8.60;7.70;;;;;;;;;;5081247;28;20472;-77
2022/10/31 08:20:09;;;;;;;10.93;8.60;;;;;;;;;;5082834;28;20441;-77
2022/10/31 08:22:37;;;;;;;9.43;8.50;;;;;;;;;;5079918;28;20472;-77
2022/10/31 08:25:04;;;;;;;11.20;8.70;;;;;;;;;;5075306;28;20452;-77
2022/10/31 08:27:31;;;;;;;10.17;9.17;;;;;;;;;;5070120;28;20451;-77
2022/10/31 08:29:59;;;;;;;10.53;8.30;;;;;;;;;;5070573;28;20456;-77
2022/10/31 08:32:26;;;;;;;8.60;7.80;;;;;;;;;;5069843;28;20510;-77
2022/10/31 08:34:53;;;;;;;9.40;8.23;;;;;;;;;;5070168;28;20440;-77
2022/10/31 08:37:20;;;;;;;9.97;8.60;;;;;;;;;;5068689;28;20456;-77
2022/10/31 08:39:49;;;;;;;9.40;8.50;;;;;;;;;;5065757;28;20445;-76
2022/10/31 08:42:16;;;;;;;9.73;8.73;;;;;;;;;;5055489;28;20502;-77
2022/10/31 08:44:43;;;;;;;13.33;8.77;;;;;;;;;;5061631;28;20440;-77
2022/10/31 08:47:10;;;;;;;9.50;8.60;;;;;;;;;;5070464;28;20452;-77
2022/10/31 08:49:37;;;;;;;11.80;9.20;;;;;;;;;;5070348;28;21248;-78
2022/10/31 08:52:04;;;;;;;8.40;7.40;;;;;;;;;;5070079;28;20582;-77
2022/10/31 08:54:31;;;;;;;9.90;8.40;;;;;;;;;;5072538;28;20769;-77
2022/10/31 08:56:59;;;;;;;8.77;7.87;;;;;;;;;;5074017;28;20948;-78
2022/10/31 08:59:26;;;;;;;8.90;8.00;;;;;;;;;;5073563;28;21029;-77
2022/10/31 09:01:53;;;;;;;12.20;7.67;;;;;;;;;;5073998;28;20464;-78
2022/10/31 09:04:20;;;;;;;8.70;7.90;;;;;;;;;;5073740;28;20440;-78
2022/10/31 09:06:47;;;;;;;8.80;8.00;;;;;;;;;;5073130;28;20440;-77
2022/10/31 09:09:14;;;;;;;9.50;7.97;;;;;;;;;;5073827;28;20448;-78
2022/10/31 09:11:42;;;;;;;9.07;7.00;;;;;;;;;;5073272;28;20464;-77
2022/10/31 09:14:10;;;;;;;11.43;8.47;;;;;;;;;;5073044;28;20808;-76
2022/10/31 09:16:37;;;;;;;8.87;7.80;;;;;;;;;;5073601;28;20449;-77
2022/10/31 09:19:04;;;;;;;9.50;8.07;;;;;;;;;;5073657;28;20507;-77
2022/10/31 09:21:31;;;;;;;11.13;8.07;;;;;;;;;;5073830;28;20456;-77
2022/10/31 09:23:58;;;;;;;13.63;8.77;;;;;;;;;;5072824;28;20471;-77
2022/10/31 09:26:25;;;;;;;11.20;7.57;;;;;;;;;;5073392;28;20928;-77
2022/10/31 09:28:52;;;;;;;12.60;8.00;;;;;;;;;;5073373;28;20482;-76
2022/10/31 09:31:21;;;;;;;11.50;7.90;;;;;;;;;;5073150;28;20448;-77
2022/10/31 09:33:48;;;;;;;12.93;8.20;;;;;;;;;;5072241;28;20453;-77
2022/10/31 09:36:15;;;;;;;10.03;7.70;;;;;;;;;;5073039;28;20859;-77
2022/10/31 09:38:42;;;;;;;9.27;8.27;;;;;;;;;;5073034;28;20841;-77
2022/10/31 09:41:14;;;;;;;9.00;8.03;;;;;;;;;;5072754;28;20963;-78
2022/10/31 09:43:44;;;;;;;10.80;8.43;;;;;;;;;;5072404;28;20447;-77
2022/10/31 09:46:16;;;;;;;9.87;8.40;;;;;;;;;;5072771;28;20809;-76
2022/10/31 09:48:54;;;;;;;14.00;8.50;;;;;;;;;;5072622;28;20503;-76
2022/10/31 09:51:22;;;;;;;9.67;8.33;;;;;;;;;;5072527;28;20449;-76
2022/10/31 09:53:51;;;;;;;12.33;8.27;;;;;;;;;;5071860;28;20452;-76
2022/10/31 09:56:19;;;;;;;11.53;8.63;;;;;;;;;;5072506;28;20448;-77
2022/10/31 09:58:47;;;;;;;11.90;8.10;;;;;;;;;;5072957;28;20999;-77
2022/10/31 10:01:30;;;;;;;9.03;7.67;;;;;;;;;;5073277;28;20445;-77
2022/10/31 10:04:01;;;;;;;10.67;8.77;;;;;;;;;;5072398;28;20453;-77
2022/10/31 10:06:30;;;;;;;11.10;8.03;;;;;;;;;;5072710;28;20813;-78
2022/10/31 10:08:57;;;;;;;12.87;8.77;;;;;;;;;;5072580;28;20447;-76
2022/10/31 10:11:33;;;;;;;9.00;8.10;;;;;;;;;;5072353;28;20472;-76
2022/10/31 10:14:05;;;;;;;14.43;8.57;;;;;;;;;;5072057;28;20427;-76
2022/10/31 10:16:48;;;;;;;8.87;7.70;;;;;;;;;;5071660;28;20447;-77
2022/10/31 10:19:23;;;;;;;12.67;7.90;;;;;;;;;;5064329;28;20491;-77
2022/10/31 10:21:52;;;;;;;10.70;8.33;;;;;;;;;;5071902;28;20452;-77
2022/10/31 10:24:24;;;;;;;12.37;8.50;;;;;;;;;;5071296;28;20448;-76
2022/10/31 10:27:00;;;;;;;13.80;8.53;;;;;;;;;;5071891;28;20944;-76
2022/10/31 10:29:31;;;;;;;10.60;8.27;;;;;;;;;;5071755;28;20429;-77
2022/10/31 10:32:00;;;;;;;8.67;7.93;;;;;;;;;;5072062;28;20487;-77
2022/10/31 10:34:31;;;;;;;11.27;8.23;;;;;;;;;;5070613;28;20460;-77
2022/10/31 10:36:59;;;;;;;10.07;8.10;;;;;;;;;;5071746;28;20448;-77
2022/10/31 10:39:29;;;;;;;9.20;8.40;;;;;;;;;;5071839;28;20476;-77
2022/10/31 10:47:40;;;;;;;8.37;7.33;;;;;;;;;;5071634;28;20405;-77
2022/10/31 10:50:11;;;;;;;9.30;7.83;;;;;;;;;;5072144;28;20436;-76
2022/10/31 10:52:46;;;;;;;9.30;8.40;;;;;;;;;;5071703;28;20468;-78
2022/10/31 10:55:19;;;;;;;10.73;8.00;;;;;;;;;;5071711;28;20491;-77
2022/10/31 10:57:53;;;;;;;14.33;8.40;;;;;;;;;;5071864;28;20526;-76
2022/10/31 11:00:22;;;;;;;10.87;8.00;;;;;;;;;;5071615;28;21019;-77
2022/10/31 11:02:49;;;;;;;15.27;8.30;;;;;;;;;;5071739;28;20471;-77
2022/10/31 11:05:21;;;;;;;12.93;8.33;;;;;;;;;;5071701;28;20948;-76
2022/10/31 11:07:48;;;;;;;11.60;8.27;;;;;;;;;;5071809;28;20548;-77
2022/10/31 11:10:16;;;;;;;9.10;7.87;;;;;;;;;;5072267;28;20506;-77
2022/10/31 11:12:44;;;;;;;10.67;8.83;;;;;;;;;;5071833;28;20468;-77
2022/10/31 11:15:19;;;;;;;14.83;9.17;;;;;;;;;;5071719;28;20445;-77
2022/10/31 11:17:49;;;;;;;11.10;8.20;;;;;;;;;;5071817;28;20450;-77
2022/10/31 11:20:30;;;;;;;13.53;9.43;;;;;;;;;;5071460;28;20944;-77
2022/10/31 11:23:02;;;;;;;10.47;9.43;;;;;;;;;;5071276;28;20471;-77
2022/10/31 11:25:29;;;;;;;11.00;8.23;;;;;;;;;;5071667;28;20457;-77
2022/10/31 11:28:00;;;;;;;16.20;10.00;;;;;;;;;;5071700;28;20456;-77
2022/10/31 11:30:27;;;;;;;10.77;8.30;;;;;;;;;;5071425;28;20432;-78
2022/10/31 11:32:54;;;;;;;11.17;8.10;;;;;;;;;;5064015;28;20476;-77
2022/10/31 11:35:23;;;;;;;12.90;8.73;;;;;;;;;;5055604;28;20454;-77
2022/10/31 11:37:54;;;;;;;9.93;8.13;;;;;;;;;;5055428;28;20452;-76
2022/10/31 11:40:22;;;;;;;12.63;9.13;;;;;;;;;;5055303;28;20478;-77
2022/10/31 11:42:50;;;;;;;9.90;8.90;;;;;;;;;;5054629;28;20478;-77
2022/10/31 11:45:18;;;;;;;11.03;8.77;;;;;;;;;;5054487;28;20979;-77
2022/10/31 11:47:47;;;;;;;11.63;8.40;;;;;;;;;;5054340;28;20941;-77
2022/10/31 11:50:20;;;;;;;15.97;8.80;;;;;;;;;;5065177;28;20463;-77
2022/10/31 11:52:47;;;;;;;13.63;10.70;;;;;;;;;;5062763;28;20547;-77
2022/10/31 11:55:31;;;;;;;11.00;9.73;;;;;;;;;;5059245;28;20445;-77
2022/10/31 11:57:58;;;;;;;12.27;8.43;;;;;;;;;;5062831;28;20445;-77
2022/10/31 12:00:26;;;;;;;8.83;7.93;;;;;;;;;;5070559;28;20480;-78
2022/10/31 12:03:05;;;;;;;13.97;9.13;;;;;;;;;;5057953;28;20835;-77
2022/10/31 12:05:33;;;;;;;14.00;9.57;;;;;;;;;;5052406;28;20445;-77
2022/10/31 12:08:00;;;;;;;13.80;9.87;;;;;;;;;;5066247;28;20442;-76
2022/10/31 12:10:34;;;;;;;13.63;10.27;;;;;;;;;;5064839;28;20437;-76
2022/10/31 12:13:07;;;;;;;11.40;9.03;;;;;;;;;;5073619;28;20460;-77
2022/10/31 12:15:36;;;;;;;10.10;9.03;;;;;;;;;;5072934;28;20441;-77
2022/10/31 12:18:22;;;;;;;10.23;8.63;;;;;;;;;;5072258;28;20452;-78
2022/10/31 12:20:53;;;;;;;14.30;8.70;;;;;;;;;;5070789;28;20448;-77
2022/10/31 12:23:23;;;;;;;9.87;8.87;;;;;;;;;;5070701;28;20469;-78
2022/10/31 12:25:53;;;;;;;12.97;9.30;;;;;;;;;;5071321;28;20892;-77
2022/10/31 12:28:30;;;;;;;14.87;9.07;;;;;;;;;;5072602;28;20444;-77
2022/10/31 12:31:03;;;;;;;14.70;9.50;;;;;;;;;;5063587;28;20449;-76
2022/10/31 12:33:46;;;;;;;11.10;8.60;;;;;;;;;;5074093;28;20472;-77
2022/10/31 12:36:22;;;;;;;13.30;8.30;;;;;;;;;;5075906;28;20440;-77
2022/10/31 12:38:57;;;;;;;17.33;9.43;;;;;;;;;;5058060;28;20480;-78
2022/10/31 12:41:32;;;;;;;17.87;9.17;;;;;;;;;;5056411;28;20445;-77
2022/10/31 12:44:05;;;;;;;9.27;8.30;;;;;;;;;;5055311;28;20428;-78
2022/10/31 12:46:42;;;;;;;11.60;8.87;;;;;;;;;;5065810;28;20825;-78
2022/10/31 12:49:16;;;;;;;11.40;8.87;;;;;;;;;;5075302;28;20472;-77
2022/10/31 12:51:49;;;;;;;11.23;8.90;;;;;;;;;;5075173;28;20469;-77
2022/10/31 12:54:34;;;;;;;9.83;8.80;;;;;;;;;;5074137;28;20433;-77
2022/10/31 12:57:07;;;;;;;12.10;8.90;;;;;;;;;;5075206;28;21101;-77
2022/10/31 12:59:37;;;;;;;13.60;9.47;;;;;;;;;;5075560;28;20519;-77
2022/10/31 13:02:06;;;;;;;11.50;8.53;;;;;;;;;;5075304;28;20470;-78
2022/10/31 13:04:38;;;;;;;11.37;9.30;;;;;;;;;;5074040;28;20452;-77
2022/10/31 13:07:08;;;;;;;12.63;9.77;;;;;;;;;;5074450;28;20432;-78
2022/10/31 13:09:37;;;;;;;13.73;8.90;;;;;;;;;;5075048;28;20522;-77
2022/10/31 13:12:09;;;;;;;11.10;8.90;;;;;;;;;;5073731;28;20815;-77
2022/10/31 13:14:39;;;;;;;9.47;8.50;;;;;;;;;;5072873;28;20420;-77
2022/10/31 13:17:15;;;;;;;11.53;8.73;;;;;;;;;;5074304;28;20429;-78
2022/10/31 13:19:44;;;;;;;12.10;9.23;;;;;;;;;;5075473;28;20460;-78
2022/10/31 13:22:14;;;;;;;12.63;9.10;;;;;;;;;;5074384;28;20460;-76
2022/10/31 13:24:43;;;;;;;14.80;9.23;;;;;;;;;;5074019;28;20483;-77
2022/10/31 13:27:15;;;;;;;10.60;9.60;;;;;;;;;;5075624;28;20445;-77
2022/10/31 13:29:45;;;;;;;15.97;9.63;;;;;;;;;;5075775;28;20436;-77
2022/10/31 13:32:12;;;;;;;10.47;8.77;;;;;;;;;;5075809;28;20891;-78
2022/10/31 13:34:41;;;;;;;14.17;9.50;;;;;;;;;;5074522;28;20788;-77
2022/10/31 13:37:14;;;;;;;17.43;10.17;;;;;;;;;;5075773;28;20452;-77
2022/10/31 13:39:48;;;;;;;18.00;9.97;;;;;;;;;;5075111;28;20472;-78
2022/10/31 13:42:20;;;;;;;14.67;10.23;;;;;;;;;;5075635;28;20467;-77
2022/10/31 13:44:47;;;;;;;18.43;9.40;;;;;;;;;;5076158;28;20426;-77
2022/10/31 13:47:26;;;;;;;10.90;8.87;;;;;;;;;;5075985;28;20433;-78
2022/10/31 13:49:53;;;;;;;11.93;9.73;;;;;;;;;;5076190;28;20437;-77
2022/10/31 13:52:25;;;;;;;13.93;9.97;;;;;;;;;;5075598;28;20551;-78
2022/10/31 13:54:55;;;;;;;12.53;9.53;;;;;;;;;;5074959;28;20445;-77
2022/10/31 13:57:28;;;;;;;13.90;8.40;;;;;;;;;;5074934;28;20460;-77
2022/10/31 13:59:57;;;;;;;12.23;9.60;;;;;;;;;;5075040;28;20488;-77
2022/10/31 14:02:27;;;;;;;16.23;9.10;;;;;;;;;;5074879;28;20469;-77
2022/10/31 14:04:57;;;;;;;11.63;9.10;;;;;;;;;;5073948;28;20463;-77
2022/10/31 14:07:25;;;;;;;12.80;9.70;;;;;;;;;;5073723;28;20452;-77
2022/10/31 14:09:55;;;;;;;15.27;9.67;;;;;;;;;;5072764;28;20432;-78
2022/10/31 14:12:26;;;;;;;17.87;9.27;;;;;;;;;;5072593;28;20467;-77
2022/10/31 14:14:56;;;;;;;13.20;9.83;;;;;;;;;;5060351;28;20438;-77
2022/10/31 14:17:25;;;;;;;11.63;8.80;;;;;;;;;;5061108;28;20902;-76
2022/10/31 14:20:23;;;;;;;14.90;10.00;;;;;;;;;;5059575;28;21004;-77
2022/10/31 14:22:50;;;;;;;11.93;8.77;;;;;;;;;;5060800;28;20568;-79
2022/10/31 14:25:27;;;;;;;12.07;9.60;;;;;;;;;;5062126;28;20460;-79
2022/10/31 14:27:56;;;;;;;9.80;8.80;;;;;;;;;;5054023;28;20445;-78
2022/10/31 14:30:24;;;;;;;12.20;9.17;;;;;;;;;;5053847;28;20441;-79
2022/10/31 14:32:53;;;;;;;12.03;9.97;;;;;;;;;;5052639;28;20485;-78
2022/10/31 14:35:21;;;;;;;14.57;10.07;;;;;;;;;;5056735;28;20500;-78
2022/10/31 14:38:00;;;;;;;11.93;9.77;;;;;;;;;;5055538;28;20457;-78
2022/10/31 14:40:31;;;;;;;14.50;8.90;;;;;;;;;;5052474;28;20461;-78
2022/10/31 14:43:13;;;;;;;11.40;9.30;;;;;;;;;;5052424;28;20466;-78
2022/10/31 14:45:46;;;;;;;10.47;8.03;;;;;;;;;;5021395;28;20838;-78
2022/10/31 14:48:23;;;;;;;10.73;9.07;;;;;;;;;;5052975;28;20437;-78